createdAt,value
2019-05-26T00:01:46.669Z,5.17
2019-05-26T00:04:15.120Z,10.38
2019-05-26T00:06:44.850Z,5.37
2019-05-26T00:09:13.338Z,4.55
2019-05-26T00:11:41.796Z,5.90
2019-05-26T00:14:10.228Z,7.12
2019-05-26T00:16:38.776Z,5.58
2019-05-26T00:19:07.220Z,6.33
2019-05-26T00:21:35.661Z,6.10
2019-05-26T00:24:04.083Z,6.70
2019-05-26T00:26:32.552Z,6.72
2019-05-26T00:29:01.008Z,7.17
2019-05-26T00:31:29.461Z,11.48
2019-05-26T00:33:57.882Z,5.12
2019-05-26T00:36:26.354Z,6.90
2019-05-26T00:38:54.776Z,7.85
2019-05-26T00:41:23.212Z,5.30
2019-05-26T00:43:51.636Z,8.18
2019-05-26T00:46:21.422Z,7.00
2019-05-26T00:48:49.876Z,9.88
2019-05-26T00:51:18.315Z,6.40
2019-05-26T00:53:46.756Z,7.33
2019-05-26T00:56:15.361Z,8.45
2019-05-26T00:58:45.480Z,9.73
2019-05-26T01:01:14.471Z,8.53
2019-05-26T01:03:44.946Z,5.28
2019-05-26T01:06:15.062Z,8.98
2019-05-26T01:08:43.600Z,6.90
2019-05-26T01:11:12.055Z,6.53
2019-05-26T01:13:40.522Z,7.17
2019-05-26T01:16:09.029Z,7.15
2019-05-26T01:18:37.491Z,6.05
2019-05-26T01:21:05.930Z,7.12
2019-05-26T01:23:34.379Z,6.08
2019-05-26T01:26:03.829Z,6.35
2019-05-26T01:28:32.233Z,7.03
2019-05-26T01:31:00.700Z,5.53
2019-05-26T01:33:29.131Z,7.17
2019-05-26T01:35:57.775Z,6.15
2019-05-26T01:38:26.515Z,12.00
2019-05-26T01:40:54.966Z,7.22
2019-05-26T01:43:23.637Z,8.13
2019-05-26T01:45:52.087Z,7.45
2019-05-26T01:48:20.500Z,6.45
2019-05-26T01:50:48.973Z,6.60
2019-05-26T01:53:17.496Z,8.00
2019-05-26T01:55:45.924Z,9.15
2019-05-26T01:58:14.498Z,9.85
2019-05-26T02:00:42.913Z,8.80
2019-05-26T02:03:11.472Z,11.55
2019-05-26T02:05:39.980Z,9.98
2019-05-26T02:08:11.953Z,8.70
2019-05-26T02:10:40.545Z,8.95
2019-05-26T02:13:11.108Z,10.45
2019-05-26T02:15:39.352Z,11.45
2019-05-26T02:18:07.882Z,12.03
2019-05-26T02:20:36.413Z,11.53
2019-05-26T02:23:05.143Z,10.00
2019-05-26T02:25:34.736Z,11.08
2019-05-26T02:28:03.249Z,10.68
2019-05-26T02:30:31.807Z,10.68
2019-05-26T02:33:00.230Z,15.28
2019-05-26T02:35:28.708Z,11.28
2019-05-26T02:37:57.181Z,13.38
2019-05-26T02:40:25.818Z,10.23
2019-05-26T02:42:54.290Z,11.65
2019-05-26T02:45:23.623Z,15.65
2019-05-26T02:47:55.240Z,14.47
2019-05-26T02:50:24.257Z,10.68
2019-05-26T02:52:52.748Z,13.58
2019-05-26T02:55:21.495Z,13.08
2019-05-26T02:57:50.819Z,10.90
2019-05-26T03:00:40.147Z,13.20
2019-05-26T03:03:09.294Z,15.20
2019-05-26T03:05:38.594Z,12.50
2019-05-26T03:08:16.487Z,14.85
2019-05-26T03:10:44.153Z,13.72
2019-05-26T03:13:15.054Z,10.98
2019-05-26T03:18:15.609Z,17.10
2019-05-26T03:20:44.443Z,14.45
2019-05-26T03:23:13.112Z,13.43
2019-05-26T03:25:45.796Z,17.23
2019-05-26T03:28:21.286Z,21.50
2019-05-26T03:30:49.815Z,15.83
2019-05-26T03:33:19.380Z,13.90
2019-05-26T03:35:47.905Z,13.25
2019-05-26T03:38:16.381Z,13.30
2019-05-26T03:40:45.008Z,14.05
2019-05-26T03:43:15.568Z,16.77
2019-05-26T03:45:47.095Z,14.53
2019-05-26T03:48:15.605Z,13.72
2019-05-26T03:50:45.684Z,19.23
2019-05-26T03:53:14.201Z,12.70
2019-05-26T03:55:42.719Z,17.07
2019-05-26T03:58:13.342Z,19.92
2019-05-26T04:00:51.049Z,18.48
2019-05-26T04:03:14.286Z,14.85
2019-05-26T04:05:44.430Z,19.40
2019-05-26T04:08:15.856Z,25.30
2019-05-26T04:10:45.878Z,14.50
2019-05-26T04:13:14.419Z,14.98
2019-05-26T04:15:43.025Z,16.48
2019-05-26T04:18:11.527Z,14.68
2019-05-26T04:20:40.002Z,15.15
2019-05-26T04:23:08.533Z,13.35
2019-05-26T04:25:37.073Z,14.68
2019-05-26T04:28:05.635Z,16.27
2019-05-26T04:30:34.214Z,18.02
2019-05-26T04:33:02.740Z,17.95
2019-05-26T04:35:31.312Z,18.55
2019-05-26T04:37:59.960Z,12.18
2019-05-26T04:40:28.494Z,20.17
2019-05-26T04:42:58.653Z,13.35
2019-05-26T04:45:27.264Z,17.67
2019-05-26T04:47:55.808Z,12.53
2019-05-26T04:50:24.285Z,11.40
2019-05-26T04:53:06.204Z,15.28
2019-05-26T04:55:24.866Z,15.93
2019-05-26T04:57:55.621Z,17.75
2019-05-26T05:00:27.068Z,14.47
2019-05-26T05:02:55.663Z,14.15
2019-05-26T05:05:24.272Z,16.82
2019-05-26T05:07:52.816Z,13.70
2019-05-26T05:10:21.335Z,19.23
2019-05-26T05:12:49.900Z,12.95
2019-05-26T05:15:19.020Z,14.05
2019-05-26T05:17:50.451Z,12.50
2019-05-26T05:20:21.303Z,14.35
2019-05-26T05:25:19.428Z,14.68
2019-05-26T05:27:47.996Z,16.50
2019-05-26T05:30:17.694Z,16.80
2019-05-26T05:32:46.373Z,17.95
2019-05-26T05:35:15.748Z,15.63
2019-05-26T05:37:46.969Z,14.10
2019-05-26T05:40:17.458Z,15.50
2019-05-26T05:42:46.001Z,15.40
2019-05-26T05:45:15.673Z,16.00
2019-05-26T05:47:47.124Z,12.68
2019-05-26T05:50:17.471Z,18.37
2019-05-26T05:52:52.684Z,17.75
2019-05-26T05:55:22.650Z,16.57
2019-05-26T05:57:51.338Z,17.73
2019-05-26T06:00:22.078Z,22.20
2019-05-26T06:02:52.366Z,20.45
2019-05-26T06:05:20.938Z,19.60
2019-05-26T06:07:49.508Z,19.90
2019-05-26T06:10:18.604Z,21.20
2019-05-26T06:12:48.822Z,21.77
2019-05-26T06:15:18.956Z,19.40
2019-05-26T06:18:01.928Z,18.62
2019-05-26T06:20:33.220Z,24.02
2019-05-26T06:23:01.721Z,24.65
2019-05-26T06:25:32.173Z,20.10
2019-05-26T06:28:01.170Z,23.65
2019-05-26T06:30:30.057Z,22.65
2019-05-26T06:33:00.887Z,22.22
2019-05-26T06:35:32.449Z,22.22
2019-05-26T06:38:01.185Z,21.90
2019-05-26T06:40:29.710Z,27.40
2019-05-26T06:42:58.288Z,25.72
2019-05-26T06:45:30.068Z,24.40
2019-05-26T06:47:58.534Z,21.42
2019-05-26T06:50:26.988Z,21.75
2019-05-26T06:52:55.556Z,21.85
2019-05-26T06:55:25.825Z,23.30
2019-05-26T06:57:56.116Z,20.50
2019-05-26T07:00:25.163Z,25.40
2019-05-26T07:02:58.755Z,19.40
2019-05-26T07:05:31.513Z,24.07
2019-05-26T07:08:10.594Z,19.82
2019-05-26T07:10:47.369Z,18.23
2019-05-26T07:13:20.430Z,18.52
2019-05-26T07:15:56.257Z,20.48
2019-05-26T07:18:24.948Z,18.65
2019-05-26T07:20:56.444Z,19.55
2019-05-26T07:23:26.309Z,17.73
2019-05-26T07:25:56.502Z,17.70
2019-05-26T07:28:24.984Z,17.52
2019-05-26T07:30:53.859Z,18.52
2019-05-26T07:33:22.357Z,15.63
2019-05-26T07:35:51.188Z,20.00
2019-05-26T07:38:20.183Z,20.70
2019-05-26T07:40:54.532Z,26.17
2019-05-26T07:43:27.968Z,24.02
2019-05-26T07:46:03.757Z,20.77
2019-05-26T07:48:35.792Z,26.02
2019-05-26T07:51:06.202Z,25.05
2019-05-26T07:53:34.726Z,25.70
2019-05-26T07:56:03.208Z,22.77
2019-05-26T07:58:31.719Z,23.45
2019-05-26T08:01:00.307Z,26.17
2019-05-26T08:03:29.851Z,21.60
2019-05-26T08:06:01.493Z,23.57
2019-05-26T08:08:31.512Z,23.60
2019-05-26T08:11:01.548Z,24.87
2019-05-26T08:13:30.093Z,22.85
2019-05-26T08:15:58.597Z,19.55
2019-05-26T08:18:27.150Z,20.32
2019-05-26T08:20:57.672Z,19.40
2019-05-26T08:23:30.830Z,20.57
2019-05-26T08:26:00.759Z,19.25
2019-05-26T08:28:31.380Z,20.60
2019-05-26T08:31:02.213Z,17.02
2019-05-26T08:36:00.275Z,18.57
2019-05-26T08:38:28.827Z,21.30
2019-05-26T08:40:57.369Z,21.77
2019-05-26T08:43:26.568Z,19.23
2019-05-26T08:45:55.017Z,17.48
2019-05-26T08:48:23.628Z,15.45
2019-05-26T08:50:53.710Z,18.60
2019-05-26T08:53:23.718Z,17.70
2019-05-26T08:55:53.660Z,20.00
2019-05-26T08:58:22.782Z,18.00
2019-05-26T09:00:51.384Z,18.48
2019-05-26T09:03:24.017Z,21.57
2019-05-26T09:05:55.056Z,18.62
2019-05-26T09:08:23.548Z,21.68
2019-05-26T09:10:54.458Z,23.02
2019-05-26T09:13:25.722Z,19.17
2019-05-26T09:15:54.303Z,18.57
2019-05-26T09:18:24.282Z,17.90
2019-05-26T09:20:55.223Z,24.90
2019-05-26T09:23:25.204Z,18.85
2019-05-26T09:25:53.804Z,16.12
2019-05-26T09:28:23.167Z,18.98
2019-05-26T09:30:55.363Z,17.42
2019-05-26T09:33:23.846Z,15.18
2019-05-26T09:35:53.116Z,17.48
2019-05-26T09:38:27.604Z,17.73
2019-05-26T09:40:56.082Z,18.77
2019-05-26T09:43:32.039Z,18.23
2019-05-26T09:46:00.551Z,17.80
2019-05-26T09:48:29.080Z,13.03
2019-05-26T09:51:03.434Z,13.00
2019-05-26T09:53:37.168Z,17.05
2019-05-26T09:56:05.737Z,12.98
2019-05-26T09:58:41.101Z,15.75
2019-05-26T10:01:08.638Z,14.10
2019-05-26T10:03:37.147Z,17.20
2019-05-26T10:06:07.416Z,13.55
2019-05-26T10:08:35.825Z,15.00
2019-05-26T10:11:07.117Z,15.18
2019-05-26T10:13:35.510Z,13.43
2019-05-26T10:16:05.601Z,13.98
2019-05-26T10:18:35.462Z,12.23
2019-05-26T10:21:04.126Z,13.57
2019-05-26T10:23:32.717Z,11.05
2019-05-26T10:26:04.178Z,14.40
2019-05-26T10:28:35.644Z,12.18
2019-05-26T10:31:07.160Z,9.40
2019-05-26T10:33:35.600Z,10.10
2019-05-26T10:36:04.146Z,14.83
2019-05-26T10:38:32.620Z,10.30
2019-05-26T10:41:03.872Z,11.05
2019-05-26T10:43:46.180Z,8.30
2019-05-26T10:46:04.565Z,13.28
2019-05-26T10:48:33.061Z,13.35
2019-05-26T10:51:01.590Z,11.43
2019-05-26T10:53:30.078Z,13.20
2019-05-26T10:55:58.493Z,10.38
2019-05-26T10:58:26.972Z,14.23
2019-05-26T11:00:56.984Z,8.55
2019-05-26T11:03:25.507Z,9.18
2019-05-26T11:05:53.959Z,7.87
2019-05-26T11:08:22.522Z,12.88
2019-05-26T11:10:52.426Z,9.08
2019-05-26T11:13:22.276Z,10.58
2019-05-26T11:15:50.638Z,9.60
2019-05-26T11:18:19.168Z,5.87
2019-05-26T11:20:47.598Z,7.42
2019-05-26T11:23:16.280Z,9.20
2019-05-26T11:25:46.230Z,6.83
2019-05-26T11:28:15.355Z,7.92
2019-05-26T11:30:45.992Z,8.33
2019-05-26T11:33:17.465Z,7.85
2019-05-26T11:36:03.649Z,7.60
2019-05-26T11:38:35.608Z,8.60
2019-05-26T11:41:13.393Z,8.90
2019-05-26T11:43:44.421Z,6.42
2019-05-26T11:46:16.429Z,6.20
2019-05-26T11:48:46.540Z,5.28
2019-05-26T11:51:18.281Z,8.48
2019-05-26T11:53:48.932Z,4.87
2019-05-26T11:56:17.454Z,10.82
2019-05-26T11:58:47.361Z,8.73
2019-05-26T12:01:18.199Z,9.18
2019-05-26T12:06:14.447Z,7.58
2019-05-26T12:08:42.875Z,5.40
2019-05-26T12:11:11.407Z,5.92
2019-05-26T12:13:40.029Z,5.00
2019-05-26T12:16:09.166Z,5.53
2019-05-26T12:18:39.385Z,5.78
2019-05-26T12:21:07.767Z,9.95
2019-05-26T12:23:36.292Z,4.58
2019-05-26T12:26:05.224Z,7.53
2019-05-26T12:28:35.126Z,6.90
2019-05-26T12:31:03.505Z,2.73
2019-05-26T12:33:31.947Z,5.40
2019-05-26T12:36:00.393Z,4.45
2019-05-26T12:38:29.959Z,6.20
2019-05-26T12:41:01.019Z,8.78
2019-05-26T12:43:29.559Z,6.25
2019-05-26T12:45:59.548Z,5.20
2019-05-26T12:48:28.071Z,7.00
2019-05-26T12:50:56.539Z,5.92
2019-05-26T12:53:25.046Z,6.17
2019-05-26T12:55:54.217Z,2.75
2019-05-26T12:58:23.414Z,7.08
2019-05-26T13:00:55.296Z,3.40
2019-05-26T13:03:23.963Z,5.25
2019-05-26T13:05:54.415Z,7.12
2019-05-26T13:08:24.610Z,5.62
2019-05-26T13:10:53.067Z,4.65
2019-05-26T13:13:21.569Z,5.17
2019-05-26T13:15:52.386Z,5.87
2019-05-26T13:18:24.098Z,7.15
2019-05-26T13:20:55.767Z,4.22
2019-05-26T13:23:30.376Z,4.22
2019-05-26T13:26:01.473Z,6.87
2019-05-26T13:28:32.723Z,4.15
2019-05-26T13:31:04.506Z,5.03
2019-05-26T13:33:33.133Z,5.95
2019-05-26T13:36:01.620Z,8.53
2019-05-26T13:38:30.103Z,4.62
2019-05-26T13:40:58.562Z,4.65
2019-05-26T13:43:35.646Z,6.25
2019-05-26T13:46:04.183Z,5.75
2019-05-26T13:48:39.753Z,8.18
2019-05-26T13:51:12.655Z,6.10
2019-05-26T13:53:47.136Z,3.72
2019-05-26T13:56:17.437Z,6.70
2019-05-26T13:58:46.154Z,5.72
2019-05-26T14:01:16.255Z,6.53
2019-05-26T14:03:49.021Z,6.58
2019-05-26T14:06:17.791Z,7.12
2019-05-26T14:08:46.996Z,6.65
2019-05-26T14:11:21.416Z,4.75
2019-05-26T14:13:49.037Z,7.42
2019-05-26T14:16:33.780Z,6.08
2019-05-26T14:19:07.286Z,3.10
2019-05-26T14:21:35.731Z,6.62
2019-05-26T14:24:04.335Z,3.02
2019-05-26T14:26:32.829Z,3.22
2019-05-26T14:29:03.936Z,6.85
2019-05-26T14:31:34.620Z,6.50
2019-05-26T14:36:30.870Z,7.47
2019-05-26T14:39:01.025Z,3.25
2019-05-26T14:41:31.769Z,5.97
2019-05-26T14:44:06.130Z,3.52
2019-05-26T14:46:37.947Z,4.12
2019-05-26T14:49:11.251Z,5.70
2019-05-26T14:51:46.122Z,3.92
2019-05-26T14:54:20.126Z,3.27
2019-05-26T14:56:54.115Z,7.62
2019-05-26T14:59:22.714Z,4.20
2019-05-26T15:01:55.439Z,4.87
2019-05-26T15:04:23.940Z,2.37
2019-05-26T15:06:53.941Z,4.55
2019-05-26T15:09:25.457Z,5.53
2019-05-26T15:11:53.151Z,6.90
2019-05-26T15:14:27.530Z,3.67
2019-05-26T15:16:58.985Z,2.55
2019-05-26T15:19:27.672Z,5.67
2019-05-26T15:21:57.734Z,4.00
2019-05-26T15:24:31.262Z,3.72
2019-05-26T15:26:59.736Z,4.55
2019-05-26T15:29:29.842Z,3.33
2019-05-26T15:31:58.375Z,4.90
2019-05-26T15:34:34.395Z,6.12
2019-05-26T15:37:02.935Z,5.95
2019-05-26T15:39:35.798Z,6.47
2019-05-26T15:42:08.508Z,6.50
2019-05-26T15:44:41.888Z,3.17
2019-05-26T15:50:02.337Z,8.08
2019-05-26T15:52:36.619Z,4.15
2019-05-26T15:55:02.521Z,7.80
2019-05-26T15:57:36.551Z,4.87
2019-05-26T16:00:15.095Z,6.00
2019-05-26T16:02:46.340Z,4.05
2019-05-26T16:05:15.194Z,3.80
2019-05-26T16:07:43.630Z,5.87
2019-05-26T16:10:15.190Z,5.55
2019-05-26T16:12:46.046Z,6.83
2019-05-26T16:15:14.577Z,10.13
2019-05-26T16:17:42.982Z,4.20
2019-05-26T16:20:11.996Z,5.47
2019-05-26T16:22:47.695Z,5.40
2019-05-26T16:25:17.722Z,5.35
2019-05-26T16:27:46.741Z,6.47
2019-05-26T17:34:53.847Z,5.70
2019-05-26T17:43:40.156Z,8.83
2019-05-26T18:01:26.770Z,4.95
2019-05-26T18:47:23.502Z,6.97
2019-05-26T19:09:16.420Z,10.72
2019-05-26T19:25:30.932Z,4.53
2019-05-26T19:28:03.754Z,4.80
2019-05-26T19:33:22.874Z,4.90
2019-05-26T19:35:51.333Z,7.45
2019-05-26T19:38:19.776Z,7.08
2019-05-26T19:40:48.925Z,6.42
2019-05-26T19:43:17.455Z,7.17
2019-05-26T19:45:46.013Z,7.50
2019-05-26T19:48:14.547Z,4.95
2019-05-26T19:50:44.747Z,6.20
2019-05-26T19:53:13.297Z,6.12
2019-05-26T19:55:41.760Z,6.85
2019-05-26T19:58:10.230Z,4.12
2019-05-26T20:00:38.842Z,5.62
2019-05-26T20:03:08.474Z,6.83
2019-05-26T20:05:38.438Z,5.60
2019-05-26T20:08:06.921Z,6.37
2019-05-26T20:10:35.453Z,5.75
2019-05-26T20:13:04.124Z,5.65
2019-05-26T20:15:32.518Z,6.78
2019-05-26T20:18:01.015Z,5.50
2019-05-26T20:20:29.486Z,7.62
2019-05-26T20:22:58.167Z,5.55
2019-05-26T20:25:26.678Z,7.08
2019-05-26T20:27:55.164Z,10.98
2019-05-26T20:30:23.741Z,9.13
2019-05-26T20:32:52.211Z,4.85
2019-05-26T20:35:20.751Z,7.22
2019-05-26T20:37:49.226Z,8.13
2019-05-26T20:40:18.276Z,9.28
2019-05-26T20:42:52.481Z,4.12
2019-05-26T20:45:22.478Z,7.92
2019-05-26T20:47:56.332Z,6.53
2019-05-26T20:50:29.588Z,9.90
2019-05-26T20:52:56.741Z,7.00
2019-05-26T20:55:25.373Z,4.72
2019-05-26T20:57:53.977Z,9.03
2019-05-26T21:00:24.572Z,8.33
2019-05-26T21:02:53.049Z,5.95
2019-05-26T21:05:21.576Z,9.08
2019-05-26T21:07:50.850Z,8.93
2019-05-26T21:10:19.413Z,6.33
2019-05-26T21:12:48.158Z,5.75
2019-05-26T21:15:17.528Z,5.65
2019-05-26T21:17:45.995Z,5.35
2019-05-26T21:20:16.295Z,4.78
2019-05-26T21:22:44.747Z,7.42
2019-05-26T21:25:13.411Z,4.90
2019-05-26T21:27:41.901Z,5.92
2019-05-26T21:30:14.501Z,6.30
2019-05-26T21:32:42.941Z,5.92
2019-05-26T21:35:12.900Z,8.28
2019-05-26T21:37:41.429Z,9.10
2019-05-26T21:40:11.208Z,8.38
2019-05-26T21:42:39.685Z,6.00
2019-05-26T21:45:08.730Z,8.73
2019-05-26T21:47:37.824Z,8.30
2019-05-26T21:50:08.802Z,9.50
2019-05-26T21:52:37.286Z,5.87
2019-05-26T21:55:08.394Z,8.48
2019-05-26T21:57:36.828Z,4.97
2019-05-26T22:00:13.618Z,6.45
2019-05-26T22:02:42.174Z,7.58
2019-05-26T22:05:11.444Z,7.62
2019-05-26T22:07:39.893Z,7.40
2019-05-26T22:10:08.718Z,9.58
2019-05-26T22:12:37.156Z,8.50
2019-05-26T22:15:10.226Z,8.15
2019-05-26T22:17:38.692Z,5.37
2019-05-26T22:20:08.257Z,8.45
2019-05-26T22:22:37.773Z,6.75
2019-05-26T22:25:09.418Z,5.83
2019-05-26T22:27:48.753Z,6.05
2019-05-26T22:30:18.850Z,8.15
2019-05-26T22:32:47.392Z,7.50
2019-05-26T22:35:15.857Z,7.67
2019-05-26T22:37:44.310Z,6.58
2019-05-26T22:40:13.273Z,11.12
2019-05-26T22:42:41.765Z,6.60
2019-05-26T22:45:10.757Z,6.67
2019-05-26T22:47:39.204Z,6.30
2019-05-26T22:50:07.994Z,5.50
2019-05-26T22:52:36.428Z,5.85
2019-05-26T22:55:12.187Z,5.08
2019-05-26T22:57:42.145Z,5.72
2019-05-26T23:00:12.380Z,6.60
2019-05-26T23:02:40.846Z,6.65
2019-05-26T23:05:09.886Z,6.78
2019-05-26T23:07:39.405Z,8.13
2019-05-26T23:10:08.557Z,10.00
2019-05-26T23:12:37.052Z,7.10
2019-05-26T23:15:10.129Z,6.58
2019-05-26T23:17:39.070Z,8.00
2019-05-26T23:20:10.301Z,7.55
2019-05-26T23:22:38.715Z,8.58
2019-05-26T23:25:08.184Z,7.42
2019-05-26T23:27:36.597Z,9.13
2019-05-26T23:30:06.883Z,5.72
2019-05-26T23:32:35.275Z,8.33
2019-05-26T23:35:05.483Z,6.47
2019-05-26T23:37:33.932Z,7.37
2019-05-26T23:40:02.396Z,9.60
2019-05-26T23:42:30.821Z,9.48
2019-05-26T23:44:59.278Z,9.38
2019-05-26T23:47:27.742Z,10.05
2019-05-26T23:49:56.207Z,7.28
2019-05-26T23:52:24.746Z,11.53
2019-05-26T23:54:53.866Z,8.15
2019-05-26T23:57:22.288Z,6.87
2019-05-26T23:59:57.070Z,5.53
